San Antonio Oeste, Argentina
Current Conditions -  °F | °C
As of 12:00 AM on Saturday 20 Dec 2014 (Local Time) from SAZN Reporting Station
Clear Clear  
Wind Chill: 17°   Ceiling: Unl
Heat Index: 17°   Visibility: 6mi
Dew Point:   Wind: 9mph
Humidity: 32%   Direction: 230°SW
Pressure: 29.68"   Gusts: NA
Location:  40.74°S, 64.95°W
Report Text: SAZN 200300Z 23008KT CAVOK 17/M00 Q1005
Loading
Personal Weather Stations






























Interactive Weather Map New forecast layout! Learn more

10-Day Weather Forecast

Advertisements
Track Severe Weather on mobile